Time,TemperatureF,DewpointF,PressureIn,WindDirection,WindDirectionDegrees,WindSpeedMPH,WindSpeedGustMPH,Humidity,HourlyPrecipIn,Conditions,Clouds,dailyrainin,SoftwareType,DateUTC
2013-08-06 00:00:00,60.8,53.6,29.94,NW,315,0.0,0.4,77,0.00,,,0.00,WUHU216HW,2013-08-06 07:00:00,
2013-08-06 00:05:00,60.8,53.6,29.94,WNW,293,0.2,0.4,77,0.00,,,0.00,WUHU216HW,2013-08-06 07:05:00,
2013-08-06 00:10:00,61.0,53.8,29.94,WSW,248,0.2,1.1,77,0.00,,,0.00,WUHU216HW,2013-08-06 07:10:00,
2013-08-06 00:15:00,61.6,54.6,29.94,SW,225,0.9,1.1,78,0.00,,,0.00,WUHU216HW,2013-08-06 07:15:00,
2013-08-06 00:20:00,61.9,54.6,29.94,West,270,0.7,1.1,77,0.00,,,0.00,WUHU216HW,2013-08-06 07:20:00,
2013-08-06 00:26:00,61.9,54.3,29.94,WNW,293,0.9,1.1,76,0.00,,,0.00,WUHU216HW,2013-08-06 07:26:00,
2013-08-06 00:31:00,61.4,53.7,29.94,WNW,293,0.4,0.9,76,0.00,,,0.00,WUHU216HW,2013-08-06 07:31:00,
2013-08-06 00:36:00,61.6,54.3,29.94,WSW,248,0.9,1.6,77,0.00,,,0.00,WUHU216HW,2013-08-06 07:36:00,
2013-08-06 00:41:00,61.7,54.5,29.94,WNW,293,0.4,1.6,77,0.00,,,0.00,WUHU216HW,2013-08-06 07:41:00,
2013-08-06 00:46:00,62.1,54.8,29.94,WNW,293,0.4,0.9,77,0.00,,,0.00,WUHU216HW,2013-08-06 07:46:00,
2013-08-06 00:51:00,61.9,54.3,29.94,West,270,0.0,1.1,76,0.00,,,0.00,WUHU216HW,2013-08-06 07:51:00,
2013-08-06 00:56:00,61.9,54.3,29.94,WNW,293,0.0,1.1,76,0.00,,,0.00,WUHU216HW,2013-08-06 07:56:00,
2013-08-06 01:01:00,61.9,54.3,29.94,WNW,293,0.4,0.7,76,0.00,,,0.00,WUHU216HW,2013-08-06 08:01:00,
2013-08-06 01:06:00,61.7,54.1,29.95,NW,315,0.4,0.7,76,0.00,,,0.00,WUHU216HW,2013-08-06 08:06:00,
2013-08-06 01:11:00,61.2,53.7,29.95,NNW,338,0.2,0.7,76,0.00,,,0.00,WUHU216HW,2013-08-06 08:11:00,
2013-08-06 01:16:00,60.8,53.6,29.94,NW,315,0.0,0.7,77,0.00,,,0.00,WUHU216HW,2013-08-06 08:16:00,
2013-08-06 01:21:00,60.3,53.5,29.94,WSW,248,0.4,0.9,78,0.00,,,0.00,WUHU216HW,2013-08-06 08:21:00,
2013-08-06 01:26:00,60.7,54.2,29.94,WNW,293,0.0,1.6,79,0.00,,,0.00,WUHU216HW,2013-08-06 08:26:00,
2013-08-06 01:32:00,60.5,54.0,29.94,NW,315,0.2,1.6,79,0.00,,,0.00,WUHU216HW,2013-08-06 08:32:00,
2013-08-06 01:37:00,60.7,54.2,29.94,NW,315,0.4,1.1,79,0.00,,,0.00,WUHU216HW,2013-08-06 08:37:00,
2013-08-06 01:42:00,60.8,54.4,29.94,West,270,0.2,1.1,79,0.00,,,0.00,WUHU216HW,2013-08-06 08:42:00,
2013-08-06 01:46:00,61.2,54.7,29.94,WSW,248,0.4,1.1,79,0.00,,,0.00,WUHU216HW,2013-08-06 08:46:00,
2013-08-06 01:47:00,61.0,54.6,29.94,WNW,293,0.7,1.1,79,0.00,,,0.00,WUHU216HW,2013-08-06 08:47:00,
2013-08-06 01:52:00,61.2,54.7,29.94,WSW,248,0.4,1.1,79,0.00,,,0.00,WUHU216HW,2013-08-06 08:52:00,
2013-08-06 02:00:00,62.1,54.8,29.94,SW,225,1.1,1.1,77,0.00,,,0.00,WUHU216HW,2013-08-06 09:00:00,
2013-08-06 02:03:00,62.1,54.8,29.94,SW,225,1.1,1.1,77,0.00,,,0.00,WUHU216HW,2013-08-06 09:03:00,
2013-08-06 02:08:00,62.1,54.8,29.94,SW,225,1.1,1.1,77,0.00,,,0.00,WUHU216HW,2013-08-06 09:08:00,
2013-08-06 03:00:00,60.3,53.5,29.93,SSE,158,0.0,0.0,78,0.00,,,0.00,WUHU216HW,2013-08-06 10:00:00,
2013-08-06 03:03:00,60.3,53.5,29.93,SSE,158,0.0,0.0,78,0.00,,,0.00,WUHU216HW,2013-08-06 10:03:00,
2013-08-06 03:08:00,60.3,53.5,29.93,SSE,158,0.0,0.0,78,0.00,,,0.00,WUHU216HW,2013-08-06 10:08:00,
2013-08-06 04:00:00,60.3,53.8,29.93,WSW,248,0.9,0.9,79,0.00,,,0.00,WUHU216HW,2013-08-06 11:00:00,
2013-08-06 04:03:00,60.3,53.8,29.93,WSW,248,0.9,0.9,79,0.00,,,0.00,WUHU216HW,2013-08-06 11:03:00,
2013-08-06 04:08:00,60.3,53.8,29.93,WSW,248,0.9,0.9,79,0.00,,,0.00,WUHU216HW,2013-08-06 11:08:00,
2013-08-06 04:59:00,59.6,53.1,29.93,SSE,158,0.0,0.0,79,0.00,,,0.00,WUHU216HW,2013-08-06 11:59:00,
2013-08-06 05:03:00,59.6,53.1,29.93,SSE,158,0.0,0.0,79,0.00,,,0.00,WUHU216HW,2013-08-06 12:03:00,
2013-08-06 05:08:00,59.6,53.1,29.93,SSE,158,0.0,0.0,79,0.00,,,0.00,WUHU216HW,2013-08-06 12:08:00,
2013-08-06 06:03:00,60.1,53.6,29.94,SSE,158,0.0,0.0,79,0.00,,,0.00,WUHU216HW,2013-08-06 13:03:00,
2013-08-06 06:08:00,59.8,53.3,29.94,SSE,158,0.0,1.1,79,0.00,,,0.00,WUHU216HW,2013-08-06 13:08:00,
2013-08-06 06:13:00,59.6,53.1,29.94,South,180,0.0,1.1,79,0.00,,,0.00,WUHU216HW,2013-08-06 13:13:00,
2013-08-06 06:18:00,59.4,53.3,29.94,SW,225,0.0,0.9,80,0.00,,,0.00,WUHU216HW,2013-08-06 13:18:00,
2013-08-06 06:23:00,59.8,53.6,29.94,SW,225,0.0,0.9,80,0.00,,,0.00,WUHU216HW,2013-08-06 13:23:00,
2013-08-06 06:28:00,59.6,53.5,29.94,WSW,248,0.4,0.4,80,0.00,,,0.00,WUHU216HW,2013-08-06 13:28:00,
2013-08-06 06:33:00,59.9,54.2,29.94,NW,315,0.4,0.4,81,0.00,,,0.00,WUHU216HW,2013-08-06 13:33:00,
2013-08-06 06:38:00,60.1,54.6,29.94,West,270,0.7,0.7,82,0.00,,,0.00,WUHU216HW,2013-08-06 13:38:00,
2013-08-06 06:43:00,60.7,55.5,29.94,West,270,0.0,0.7,83,0.00,,,0.00,WUHU216HW,2013-08-06 13:43:00,
2013-08-06 06:48:00,61.0,55.9,29.94,West,270,0.7,1.3,83,0.00,,,0.00,WUHU216HW,2013-08-06 13:48:00,
2013-08-06 06:53:00,61.9,56.7,29.94,West,270,0.2,1.8,83,0.00,,,0.00,WUHU216HW,2013-08-06 13:53:00,
2013-08-06 06:58:00,61.9,56.7,29.95,SW,225,0.7,1.8,83,0.00,,,0.00,WUHU216HW,2013-08-06 13:58:00,
2013-08-06 07:04:00,61.4,55.5,29.95,SE,135,0.7,1.1,81,0.00,,,0.00,WUHU216HW,2013-08-06 14:04:00,
2013-08-06 07:09:00,60.7,54.9,29.95,ESE,113,1.1,1.1,81,0.00,,,0.00,WUHU216HW,2013-08-06 14:09:00,
2013-08-06 07:14:00,60.3,54.2,29.95,ESE,113,1.1,1.8,80,0.00,,,0.00,WUHU216HW,2013-08-06 14:14:00,
2013-08-06 07:19:00,60.5,54.7,29.95,SSW,203,1.1,1.8,81,0.00,,,0.00,WUHU216HW,2013-08-06 14:19:00,
2013-08-06 07:24:00,60.7,54.9,29.95,NW,315,0.0,1.6,81,0.00,,,0.00,WUHU216HW,2013-08-06 14:24:00,
2013-08-06 07:29:00,60.5,54.4,29.95,NNW,338,0.0,0.9,80,0.00,,,0.00,WUHU216HW,2013-08-06 14:29:00,
2013-08-06 07:34:00,60.3,54.2,29.96,East,90,1.1,1.1,80,0.00,,,0.00,WUHU216HW,2013-08-06 14:34:00,
2013-08-06 07:39:00,59.8,53.6,29.96,West,270,0.2,1.8,80,0.00,,,0.00,WUHU216HW,2013-08-06 14:39:00,
2013-08-06 07:44:00,59.9,54.2,29.96,NW,315,0.2,1.8,81,0.00,,,0.00,WUHU216HW,2013-08-06 14:44:00,
2013-08-06 07:49:00,60.3,54.6,29.96,West,270,0.0,0.7,81,0.00,,,0.00,WUHU216HW,2013-08-06 14:49:00,
2013-08-06 07:54:00,60.7,54.9,29.96,West,270,1.1,1.1,81,0.00,,,0.00,WUHU216HW,2013-08-06 14:54:00,
2013-08-06 08:00:00,61.2,55.1,29.96,NW,315,1.8,1.8,80,0.00,,,0.00,WUHU216HW,2013-08-06 15:00:00,
2013-08-06 08:05:00,61.0,54.6,29.96,WNW,293,0.4,1.8,79,0.00,,,0.00,WUHU216HW,2013-08-06 15:05:00,
2013-08-06 08:10:00,60.8,54.4,29.97,West,270,0.7,1.1,79,0.00,,,0.00,WUHU216HW,2013-08-06 15:10:00,
2013-08-06 08:15:00,61.0,54.6,29.97,WSW,248,0.4,0.9,79,0.00,,,0.00,WUHU216HW,2013-08-06 15:15:00,
2013-08-06 08:20:00,60.8,54.4,29.97,WNW,293,0.2,0.9,79,0.00,,,0.00,WUHU216HW,2013-08-06 15:20:00,
2013-08-06 08:25:00,60.5,54.0,29.97,NW,315,0.7,1.3,79,0.00,,,0.00,WUHU216HW,2013-08-06 15:25:00,
2013-08-06 08:30:00,60.3,54.2,29.97,NW,315,0.4,1.3,80,0.00,,,0.00,WUHU216HW,2013-08-06 15:30:00,
2013-08-06 08:35:00,60.3,54.2,29.97,NW,315,0.4,0.9,80,0.00,,,0.00,WUHU216HW,2013-08-06 15:35:00,
2013-08-06 08:40:00,60.7,54.5,29.97,SW,225,1.1,2.5,80,0.00,,,0.00,WUHU216HW,2013-08-06 15:40:00,
2013-08-06 08:45:00,61.2,54.7,29.98,West,270,1.6,2.5,79,0.00,,,0.00,WUHU216HW,2013-08-06 15:45:00,
2013-08-06 08:50:00,61.6,55.0,29.98,SW,225,0.9,1.6,79,0.00,,,0.00,WUHU216HW,2013-08-06 15:50:00,
2013-08-06 08:55:00,61.9,55.0,29.98,WNW,293,0.4,1.1,78,0.00,,,0.00,WUHU216HW,2013-08-06 15:55:00,
2013-08-06 09:00:00,62.1,54.8,29.98,WNW,293,0.4,1.6,77,0.00,,,0.00,WUHU216HW,2013-08-06 16:00:00,
2013-08-06 09:05:00,61.9,54.6,29.98,SSW,203,0.2,1.6,77,0.00,,,0.00,WUHU216HW,2013-08-06 16:05:00,
2013-08-06 09:11:00,62.1,54.8,29.98,WSW,248,0.0,1.3,77,0.00,,,0.00,WUHU216HW,2013-08-06 16:11:00,
2013-08-06 09:16:00,62.3,54.5,29.98,West,270,1.3,1.3,76,0.00,,,0.00,WUHU216HW,2013-08-06 16:16:00,
2013-08-06 09:21:00,62.3,54.5,29.98,SW,225,1.8,1.8,76,0.00,,,0.00,WUHU216HW,2013-08-06 16:21:00,
2013-08-06 09:26:00,62.5,54.7,29.98,WSW,248,1.1,3.1,76,0.00,,,0.00,WUHU216HW,2013-08-06 16:26:00,
2013-08-06 09:31:00,62.6,54.5,29.98,North,0,0.0,3.1,75,0.00,,,0.00,WUHU216HW,2013-08-06 16:31:00,
2013-08-06 09:36:00,61.6,53.9,29.99,NW,315,0.7,2.7,76,0.00,,,0.00,WUHU216HW,2013-08-06 16:36:00,
2013-08-06 09:41:00,61.6,53.9,29.99,SW,225,1.1,1.3,76,0.00,,,0.00,WUHU216HW,2013-08-06 16:41:00,
2013-08-06 09:46:00,62.3,54.5,29.99,SE,135,1.1,1.6,76,0.00,,,0.00,WUHU216HW,2013-08-06 16:46:00,
2013-08-06 09:51:00,62.6,54.9,29.99,SSE,158,1.1,1.6,76,0.00,,,0.00,WUHU216HW,2013-08-06 16:51:00,
2013-08-06 09:56:00,63.0,55.3,29.99,WSW,248,1.8,3.1,76,0.00,,,0.00,WUHU216HW,2013-08-06 16:56:00,
2013-08-06 10:01:00,63.5,55.4,29.99,WNW,293,2.2,3.1,75,0.00,,,0.00,WUHU216HW,2013-08-06 17:01:00,
2013-08-06 10:06:00,63.7,55.6,29.98,SW,225,0.4,2.2,75,0.00,,,0.00,WUHU216HW,2013-08-06 17:06:00,
2013-08-06 10:11:00,64.3,55.1,29.99,WNW,293,1.1,2.0,72,0.00,,,0.00,WUHU216HW,2013-08-06 17:11:00,
2013-08-06 10:17:00,64.4,55.3,29.99,SSW,203,2.2,2.2,72,0.00,,,0.00,WUHU216HW,2013-08-06 17:17:00,
2013-08-06 10:22:00,64.4,55.6,29.99,SW,225,1.8,2.2,73,0.00,,,0.00,WUHU216HW,2013-08-06 17:22:00,
2013-08-06 10:27:00,64.4,55.6,29.98,SSW,203,0.4,2.0,73,0.00,,,0.00,WUHU216HW,2013-08-06 17:27:00,
2013-08-06 10:32:00,65.3,56.4,29.98,SE,135,1.3,2.5,73,0.00,,,0.00,WUHU216HW,2013-08-06 17:32:00,
2013-08-06 10:37:00,66.4,57.5,29.98,SSE,158,0.4,4.5,73,0.00,,,0.00,WUHU216HW,2013-08-06 17:37:00,
2013-08-06 10:42:00,67.3,57.6,29.98,NNW,338,1.6,4.5,71,0.00,,,0.00,WUHU216HW,2013-08-06 17:42:00,
2013-08-06 10:47:00,67.7,57.2,29.98,SW,225,1.1,2.5,69,0.00,,,0.00,WUHU216HW,2013-08-06 17:47:00,
2013-08-06 10:53:00,67.0,55.2,29.98,West,270,2.5,2.5,66,0.00,,,0.00,WUHU216HW,2013-08-06 17:53:00,
2013-08-06 10:58:00,66.4,55.9,29.98,West,270,1.8,2.5,69,0.00,,,0.00,WUHU216HW,2013-08-06 17:58:00,
2013-08-06 11:03:00,66.4,55.5,29.98,SW,225,3.4,3.4,68,0.00,,,0.00,WUHU216HW,2013-08-06 18:03:00,
2013-08-06 11:08:00,66.2,55.7,29.98,SSE,158,3.1,3.4,69,0.00,,,0.00,WUHU216HW,2013-08-06 18:08:00,
2013-08-06 11:13:00,66.4,55.5,29.98,WSW,248,2.0,3.1,68,0.00,,,0.00,WUHU216HW,2013-08-06 18:13:00,
2013-08-06 11:18:00,66.4,55.9,29.98,WSW,248,1.1,2.5,69,0.00,,,0.00,WUHU216HW,2013-08-06 18:18:00,
2013-08-06 11:23:00,66.6,56.1,29.98,WSW,248,0.4,2.5,69,0.00,,,0.00,WUHU216HW,2013-08-06 18:23:00,
2013-08-06 11:28:00,67.1,56.6,29.98,WNW,293,1.8,2.2,69,0.00,,,0.00,WUHU216HW,2013-08-06 18:28:00,
2013-08-06 11:33:00,67.1,56.3,29.99,WSW,248,0.7,2.5,68,0.00,,,0.00,WUHU216HW,2013-08-06 18:33:00,
2013-08-06 11:38:00,67.3,56.0,29.98,SSW,203,2.7,3.4,67,0.00,,,0.00,WUHU216HW,2013-08-06 18:38:00,
2013-08-06 11:43:00,67.3,56.4,29.98,WSW,248,1.8,3.4,68,0.00,,,0.00,WUHU216HW,2013-08-06 18:43:00,
2013-08-06 11:48:00,67.5,56.6,29.98,SW,225,0.4,2.5,68,0.00,,,0.00,WUHU216HW,2013-08-06 18:48:00,
2013-08-06 11:53:00,67.9,56.9,29.98,West,270,1.6,2.5,68,0.00,,,0.00,WUHU216HW,2013-08-06 18:53:00,
2013-08-06 11:59:00,68.4,57.4,29.98,WSW,248,2.2,2.2,68,0.00,,,0.00,WUHU216HW,2013-08-06 18:59:00,
2013-08-06 12:04:00,68.8,56.5,29.98,WSW,248,1.6,2.7,65,0.00,,,0.00,WUHU216HW,2013-08-06 19:04:00,
2013-08-06 12:09:00,68.8,56.5,29.98,West,270,1.8,2.7,65,0.00,,,0.00,WUHU216HW,2013-08-06 19:09:00,
2013-08-06 12:14:00,68.9,57.1,29.97,WSW,248,0.4,2.7,66,0.00,,,0.00,WUHU216HW,2013-08-06 19:14:00,
2013-08-06 12:19:00,69.1,56.8,29.97,WSW,248,2.9,2.9,65,0.00,,,0.00,WUHU216HW,2013-08-06 19:19:00,
2013-08-06 12:24:00,69.1,56.8,29.97,NNW,338,2.5,3.1,65,0.00,,,0.00,WUHU216HW,2013-08-06 19:24:00,
2013-08-06 12:29:00,68.8,56.1,29.97,West,270,2.0,3.4,64,0.00,,,0.00,WUHU216HW,2013-08-06 19:29:00,
2013-08-06 12:34:00,69.1,56.8,29.97,WSW,248,1.8,3.4,65,0.00,,,0.00,WUHU216HW,2013-08-06 19:34:00,
2013-08-06 12:39:00,69.7,56.9,29.97,WSW,248,2.9,2.9,64,0.00,,,0.00,WUHU216HW,2013-08-06 19:39:00,
2013-08-06 12:44:00,70.0,57.2,29.97,SW,225,1.8,3.8,64,0.00,,,0.00,WUHU216HW,2013-08-06 19:44:00,
2013-08-06 12:49:00,70.2,57.1,29.97,West,270,3.1,3.8,63,0.00,,,0.00,WUHU216HW,2013-08-06 19:49:00,
2013-08-06 12:55:00,70.2,57.1,29.97,West,270,1.3,3.1,63,0.00,,,0.00,WUHU216HW,2013-08-06 19:55:00,
2013-08-06 13:00:00,70.6,57.3,29.97,NNW,338,1.1,2.7,63,0.00,,,0.00,WUHU216HW,2013-08-06 20:00:00,
2013-08-06 13:05:00,70.9,57.2,29.97,WNW,293,1.8,2.7,62,0.00,,,0.00,WUHU216HW,2013-08-06 20:05:00,
2013-08-06 13:10:00,71.3,58.1,29.97,NNW,338,0.7,4.0,63,0.00,,,0.00,WUHU216HW,2013-08-06 20:10:00,
2013-08-06 13:15:00,70.7,56.7,29.97,NNW,338,2.9,4.0,61,0.00,,,0.00,WUHU216HW,2013-08-06 20:15:00,
2013-08-06 13:20:00,70.0,57.2,29.97,WNW,293,1.1,3.4,64,0.00,,,0.00,WUHU216HW,2013-08-06 20:20:00,
2013-08-06 13:25:00,70.6,57.0,29.96,WSW,248,1.8,4.0,62,0.00,,,0.00,WUHU216HW,2013-08-06 20:25:00,
2013-08-06 13:30:00,71.3,58.1,29.96,NW,315,1.1,4.0,63,0.00,,,0.00,WUHU216HW,2013-08-06 20:30:00,
2013-08-06 13:32:00,71.8,58.1,29.96,WNW,293,1.3,4.0,62,0.00,,,0.00,WUHU216HW,2013-08-06 20:32:00,
2013-08-06 13:35:00,72.2,58.4,29.96,SW,225,1.6,1.8,62,0.00,,,0.00,WUHU216HW,2013-08-06 20:35:00,
2013-08-06 13:40:00,73.3,59.4,29.96,SW,225,2.7,2.9,62,0.00,,,0.00,WUHU216HW,2013-08-06 20:40:00,
2013-08-06 13:46:00,73.3,58.1,29.96,West,270,1.8,2.9,59,0.00,,,0.00,WUHU216HW,2013-08-06 20:46:00,
2013-08-06 13:51:00,73.1,58.3,29.96,SSW,203,2.7,2.9,60,0.00,,,0.00,WUHU216HW,2013-08-06 20:51:00,
2013-08-06 13:56:00,73.1,57.9,29.96,WSW,248,2.2,3.4,59,0.00,,,0.00,WUHU216HW,2013-08-06 20:56:00,
2013-08-06 14:01:00,73.3,58.5,29.96,WSW,248,3.6,3.6,60,0.00,,,0.00,WUHU216HW,2013-08-06 21:01:00,
2013-08-06 14:06:00,73.8,58.1,29.96,NNW,338,0.4,5.6,58,0.00,,,0.00,WUHU216HW,2013-08-06 21:06:00,
2013-08-06 14:11:00,74.0,58.7,29.96,West,270,0.4,5.6,59,0.00,,,0.00,WUHU216HW,2013-08-06 21:11:00,
2013-08-06 14:16:00,74.2,57.9,29.95,West,270,3.4,4.0,57,0.00,,,0.00,WUHU216HW,2013-08-06 21:16:00,
2013-08-06 14:21:00,74.0,57.7,29.95,SSW,203,1.1,4.7,57,0.00,,,0.00,WUHU216HW,2013-08-06 21:21:00,
2013-08-06 14:26:00,74.0,57.7,29.95,NW,315,1.8,4.7,57,0.00,,,0.00,WUHU216HW,2013-08-06 21:26:00,
2013-08-06 14:31:00,73.6,57.3,29.95,West,270,2.2,2.7,57,0.00,,,0.00,WUHU216HW,2013-08-06 21:31:00,
2013-08-06 14:36:00,73.8,57.5,29.95,West,270,2.5,2.7,57,0.00,,,0.00,WUHU216HW,2013-08-06 21:36:00,
2013-08-06 14:41:00,73.6,57.3,29.95,NW,315,2.0,2.7,57,0.00,,,0.00,WUHU216HW,2013-08-06 21:41:00,
2013-08-06 14:46:00,73.1,57.3,29.95,SW,225,1.1,2.7,58,0.00,,,0.00,WUHU216HW,2013-08-06 21:46:00,
2013-08-06 14:52:00,73.6,57.3,29.95,SW,225,0.4,4.7,57,0.00,,,0.00,WUHU216HW,2013-08-06 21:52:00,
2013-08-06 14:57:00,73.8,57.5,29.95,WSW,248,4.0,4.7,57,0.00,,,0.00,WUHU216HW,2013-08-06 21:57:00,
2013-08-06 15:02:00,73.1,56.9,29.95,NNW,338,0.4,4.0,57,0.00,,,0.00,WUHU216HW,2013-08-06 22:02:00,
2013-08-06 15:07:00,73.1,57.3,29.95,West,270,1.1,3.4,58,0.00,,,0.00,WUHU216HW,2013-08-06 22:07:00,
2013-08-06 15:12:00,73.4,57.7,29.94,North,0,1.8,3.4,58,0.00,,,0.00,WUHU216HW,2013-08-06 22:12:00,
2013-08-06 15:17:00,72.4,57.3,29.94,WSW,248,4.5,4.5,59,0.00,,,0.00,WUHU216HW,2013-08-06 22:17:00,
2013-08-06 15:22:00,72.4,56.7,29.94,WSW,248,1.8,4.7,58,0.00,,,0.00,WUHU216HW,2013-08-06 22:22:00,
2013-08-06 15:27:00,72.7,57.5,29.95,NW,315,2.2,4.7,59,0.00,,,0.00,WUHU216HW,2013-08-06 22:27:00,
2013-08-06 15:32:00,73.3,57.0,29.95,WNW,293,1.8,3.4,57,0.00,,,0.00,WUHU216HW,2013-08-06 22:32:00,
2013-08-06 15:37:00,72.4,56.7,29.95,NNW,338,1.6,3.4,58,0.00,,,0.00,WUHU216HW,2013-08-06 22:37:00,
2013-08-06 15:42:00,72.4,56.7,29.94,SW,225,5.1,5.1,58,0.00,,,0.00,WUHU216HW,2013-08-06 22:42:00,
2013-08-06 15:47:00,72.2,57.5,29.95,NNW,338,2.7,5.1,60,0.00,,,0.00,WUHU216HW,2013-08-06 22:47:00,
2013-08-06 15:53:00,71.6,56.5,29.95,NW,315,2.7,4.3,59,0.00,,,0.00,WUHU216HW,2013-08-06 22:53:00,
2013-08-06 15:58:00,72.0,57.8,29.95,North,0,0.9,4.3,61,0.00,,,0.00,WUHU216HW,2013-08-06 22:58:00,
2013-08-06 16:03:00,72.4,56.7,29.94,West,270,2.9,5.1,58,0.00,,,0.00,WUHU216HW,2013-08-06 23:03:00,
2013-08-06 16:08:00,72.5,56.9,29.95,SSW,203,4.0,5.1,58,0.00,,,0.00,WUHU216HW,2013-08-06 23:08:00,
2013-08-06 16:13:00,71.8,56.7,29.95,WNW,293,1.1,4.0,59,0.00,,,0.00,WUHU216HW,2013-08-06 23:13:00,
2013-08-06 16:18:00,71.6,57.1,29.94,WSW,248,4.5,5.1,60,0.00,,,0.00,WUHU216HW,2013-08-06 23:18:00,
2013-08-06 16:23:00,71.6,57.1,29.94,WNW,293,6.3,6.3,60,0.00,,,0.00,WUHU216HW,2013-08-06 23:23:00,
2013-08-06 16:28:00,71.5,56.9,29.95,NNW,338,3.8,6.3,60,0.00,,,0.00,WUHU216HW,2013-08-06 23:28:00,
2013-08-06 16:33:00,70.9,56.4,29.95,NNW,338,1.1,4.3,60,0.00,,,0.00,WUHU216HW,2013-08-06 23:33:00,
2013-08-06 16:38:00,71.8,57.3,29.95,NNW,338,1.6,5.4,60,0.00,,,0.00,WUHU216HW,2013-08-06 23:38:00,
2013-08-06 16:43:00,73.1,57.9,29.95,West,270,5.1,5.4,59,0.00,,,0.00,WUHU216HW,2013-08-06 23:43:00,
2013-08-06 16:48:00,74.0,56.7,29.95,WNW,293,2.5,5.1,55,0.00,,,0.00,WUHU216HW,2013-08-06 23:48:00,
2013-08-06 16:53:00,72.9,57.2,29.94,WSW,248,1.8,4.5,58,0.00,,,0.00,WUHU216HW,2013-08-06 23:53:00,
2013-08-06 16:58:00,75.1,57.2,29.95,NNW,338,2.5,3.4,54,0.00,,,0.00,WUHU216HW,2013-08-06 23:58:00,
2013-08-06 17:03:00,74.5,57.2,29.95,NW,315,1.3,3.4,55,0.00,,,0.00,WUHU216HW,2013-08-07 00:03:00,
2013-08-06 17:09:00,74.5,57.2,29.95,WSW,248,2.9,3.6,55,0.00,,,0.00,WUHU216HW,2013-08-07 00:09:00,
2013-08-06 17:14:00,73.8,57.1,29.95,NNW,338,0.9,4.0,56,0.00,,,0.00,WUHU216HW,2013-08-07 00:14:00,
2013-08-06 17:19:00,72.9,56.7,29.95,WSW,248,4.0,4.0,57,0.00,,,0.00,WUHU216HW,2013-08-07 00:19:00,
2013-08-06 17:24:00,74.2,57.4,29.95,North,0,1.8,4.0,56,0.00,,,0.00,WUHU216HW,2013-08-07 00:24:00,
2013-08-06 17:29:00,74.5,56.7,29.95,West,270,2.5,3.6,54,0.00,,,0.00,WUHU216HW,2013-08-07 00:29:00,
2013-08-06 17:34:00,75.2,58.5,29.95,West,270,0.9,3.6,56,0.00,,,0.00,WUHU216HW,2013-08-07 00:34:00,
2013-08-06 17:39:00,74.2,56.9,29.95,NW,315,2.0,3.6,55,0.00,,,0.00,WUHU216HW,2013-08-07 00:39:00,
2013-08-06 17:44:00,72.5,56.9,29.95,SW,225,3.6,3.6,58,0.00,,,0.00,WUHU216HW,2013-08-07 00:44:00,
2013-08-06 17:49:00,72.9,56.7,29.95,West,270,3.4,3.6,57,0.00,,,0.00,WUHU216HW,2013-08-07 00:49:00,
2013-08-06 17:54:00,74.3,58.1,29.95,NW,315,2.2,3.8,57,0.00,,,0.00,WUHU216HW,2013-08-07 00:54:00,
2013-08-06 17:59:00,75.2,57.0,29.95,North,0,1.1,4.7,53,0.00,,,0.00,WUHU216HW,2013-08-07 00:59:00,
2013-08-06 18:04:00,73.6,56.3,29.95,NW,315,1.8,4.7,55,0.00,,,0.00,WUHU216HW,2013-08-07 01:04:00,
2013-08-06 18:10:00,72.9,57.2,29.95,NNW,338,1.8,3.6,58,0.00,,,0.00,WUHU216HW,2013-08-07 01:10:00,
2013-08-06 18:15:00,73.6,56.9,29.95,NNW,338,2.7,3.6,56,0.00,,,0.00,WUHU216HW,2013-08-07 01:15:00,
2013-08-06 18:20:00,73.6,56.9,29.94,NW,315,0.4,3.6,56,0.00,,,0.00,WUHU216HW,2013-08-07 01:20:00,
2013-08-06 18:25:00,72.5,56.3,29.94,WSW,248,3.1,6.0,57,0.00,,,0.00,WUHU216HW,2013-08-07 01:25:00,
2013-08-06 18:30:00,71.3,55.7,29.95,WSW,248,1.8,6.0,58,0.00,,,0.00,WUHU216HW,2013-08-07 01:30:00,
2013-08-06 18:35:00,70.4,55.5,29.94,West,270,2.2,4.0,59,0.00,,,0.00,WUHU216HW,2013-08-07 01:35:00,
2013-08-06 18:40:00,70.2,55.8,29.94,NW,315,1.6,4.0,60,0.00,,,0.00,WUHU216HW,2013-08-07 01:40:00,
2013-08-06 18:45:00,68.0,55.4,29.94,North,0,1.1,4.0,64,0.00,,,0.00,WUHU216HW,2013-08-07 01:45:00,
2013-08-06 18:50:00,67.3,55.1,29.94,NNE,23,2.0,2.5,65,0.00,,,0.00,WUHU216HW,2013-08-07 01:50:00,
2013-08-06 18:55:00,66.2,54.9,29.95,North,0,0.7,2.9,67,0.00,,,0.00,WUHU216HW,2013-08-07 01:55:00,
2013-08-06 19:00:00,65.9,55.0,29.95,NW,315,0.4,2.9,68,0.00,,,0.00,WUHU216HW,2013-08-07 02:00:00,
2013-08-06 19:05:00,66.6,55.3,29.95,WSW,248,1.8,2.0,67,0.00,,,0.00,WUHU216HW,2013-08-07 02:05:00,
2013-08-06 19:11:00,67.3,55.5,29.95,West,270,1.8,1.8,66,0.00,,,0.00,WUHU216HW,2013-08-07 02:11:00,
2013-08-06 19:16:00,67.5,55.7,29.95,WSW,248,1.3,1.8,66,0.00,,,0.00,WUHU216HW,2013-08-07 02:16:00,
2013-08-06 19:21:00,67.0,55.2,29.95,WNW,293,2.5,2.5,66,0.00,,,0.00,WUHU216HW,2013-08-07 02:21:00,
2013-08-06 19:26:00,67.0,55.2,29.95,WSW,248,0.9,3.1,66,0.00,,,0.00,WUHU216HW,2013-08-07 02:26:00,
2013-08-06 19:31:00,66.6,55.3,29.95,NNW,338,1.3,3.1,67,0.00,,,0.00,WUHU216HW,2013-08-07 02:31:00,
2013-08-06 19:36:00,65.5,55.1,29.95,NNW,338,1.1,2.0,69,0.00,,,0.00,WUHU216HW,2013-08-07 02:36:00,
2013-08-06 19:41:00,64.6,55.1,29.96,NNW,338,1.3,1.8,71,0.00,,,0.00,WUHU216HW,2013-08-07 02:41:00,
2013-08-06 19:46:00,64.3,55.1,29.96,NW,315,0.2,1.8,72,0.00,,,0.00,WUHU216HW,2013-08-07 02:46:00,
2013-08-06 19:51:00,64.3,55.4,29.96,NNW,338,0.7,1.8,73,0.00,,,0.00,WUHU216HW,2013-08-07 02:51:00,
2013-08-06 19:56:00,64.1,55.3,29.96,West,270,0.9,2.5,73,0.00,,,0.00,WUHU216HW,2013-08-07 02:56:00,
2013-08-06 20:01:00,64.6,55.5,29.96,West,270,1.1,2.5,72,0.00,,,0.00,WUHU216HW,2013-08-07 03:01:00,
2013-08-06 20:06:00,65.2,55.5,29.96,WNW,293,0.9,2.5,71,0.00,,,0.00,WUHU216HW,2013-08-07 03:06:00,
2013-08-06 20:11:00,65.2,55.5,29.97,NNW,338,0.4,1.8,71,0.00,,,0.00,WUHU216HW,2013-08-07 03:11:00,
2013-08-06 20:17:00,64.3,55.4,29.97,NNW,338,0.4,1.6,73,0.00,,,0.00,WUHU216HW,2013-08-07 03:17:00,
2013-08-06 20:22:00,63.4,54.9,29.97,West,270,1.6,1.6,74,0.00,,,0.00,WUHU216HW,2013-08-07 03:22:00,
2013-08-06 20:27:00,62.6,54.5,29.97,NNW,338,1.6,1.6,75,0.00,,,0.00,WUHU216HW,2013-08-07 03:27:00,
2013-08-06 20:32:00,61.9,54.3,29.97,NNW,338,0.9,1.8,76,0.00,,,0.00,WUHU216HW,2013-08-07 03:32:00,
2013-08-06 20:37:00,61.6,54.6,29.97,NW,315,0.2,1.8,78,0.00,,,0.00,WUHU216HW,2013-08-07 03:37:00,
2013-08-06 20:42:00,61.2,54.0,29.97,WNW,293,0.0,1.8,77,0.00,,,0.00,WUHU216HW,2013-08-07 03:42:00,
2013-08-06 20:47:00,61.2,54.4,29.97,NW,315,0.4,1.8,78,0.00,,,0.00,WUHU216HW,2013-08-07 03:47:00,
2013-08-06 20:52:00,61.2,54.4,29.97,West,270,0.7,1.3,78,0.00,,,0.00,WUHU216HW,2013-08-07 03:52:00,
2013-08-06 20:57:00,61.2,54.7,29.97,NW,315,0.4,2.0,79,0.00,,,0.00,WUHU216HW,2013-08-07 03:57:00,
2013-08-06 21:01:00,61.2,54.4,29.97,WNW,293,0.4,2.0,78,0.00,,,0.00,WUHU216HW,2013-08-07 04:01:00,
2013-08-06 21:02:00,61.2,54.7,29.97,NW,315,0.9,2.0,79,0.00,,,0.00,WUHU216HW,2013-08-07 04:02:00,
2013-08-06 21:07:00,61.2,54.4,29.97,West,270,0.2,1.3,78,0.00,,,0.00,WUHU216HW,2013-08-07 04:07:00,
2013-08-06 21:13:00,61.0,54.2,29.98,NNW,338,0.4,1.3,78,0.00,,,0.00,WUHU216HW,2013-08-07 04:13:00,
2013-08-06 21:18:00,61.0,54.6,29.98,West,270,0.7,1.1,79,0.00,,,0.00,WUHU216HW,2013-08-07 04:18:00,
2013-08-06 21:23:00,61.0,54.6,29.98,NW,315,0.2,1.1,79,0.00,,,0.00,WUHU216HW,2013-08-07 04:23:00,
2013-08-06 21:28:00,60.8,54.4,29.98,SW,225,0.0,1.3,79,0.00,,,0.00,WUHU216HW,2013-08-07 04:28:00,
2013-08-06 21:33:00,60.8,54.4,29.99,West,270,0.0,1.3,79,0.00,,,0.00,WUHU216HW,2013-08-07 04:33:00,
2013-08-06 21:38:00,60.8,54.4,29.99,NW,315,0.4,0.7,79,0.00,,,0.00,WUHU216HW,2013-08-07 04:38:00,
2013-08-06 21:43:00,60.8,54.4,29.99,WNW,293,0.0,0.7,79,0.00,,,0.00,WUHU216HW,2013-08-07 04:43:00,
2013-08-06 21:48:00,60.8,54.4,29.99,WSW,248,0.9,1.6,79,0.00,,,0.00,WUHU216HW,2013-08-07 04:48:00,
2013-08-06 21:53:00,60.7,54.2,29.99,West,270,0.7,1.6,79,0.00,,,0.00,WUHU216HW,2013-08-07 04:53:00,
2013-08-06 21:58:00,60.7,54.2,29.99,WSW,248,0.4,2.2,79,0.00,,,0.00,WUHU216HW,2013-08-07 04:58:00,
2013-08-06 22:03:00,60.7,54.2,29.99,West,270,0.0,2.2,79,0.00,,,0.00,WUHU216HW,2013-08-07 05:03:00,
2013-08-06 22:08:00,60.7,54.2,29.99,West,270,0.0,0.9,79,0.00,,,0.00,WUHU216HW,2013-08-07 05:08:00,
2013-08-06 22:13:00,60.7,54.9,29.99,WSW,248,0.9,1.8,81,0.00,,,0.00,WUHU216HW,2013-08-07 05:13:00,
2013-08-06 22:18:00,60.7,54.5,29.99,West,270,0.9,1.8,80,0.00,,,0.00,WUHU216HW,2013-08-07 05:18:00,
2013-08-06 22:23:00,60.7,54.2,29.99,West,270,0.7,1.3,79,0.00,,,0.00,WUHU216HW,2013-08-07 05:23:00,
2013-08-06 22:28:00,60.7,54.9,29.99,West,270,0.9,2.0,81,0.00,,,0.00,WUHU216HW,2013-08-07 05:28:00,
2013-08-06 22:33:00,60.7,54.5,29.99,WSW,248,0.7,2.0,80,0.00,,,0.00,WUHU216HW,2013-08-07 05:33:00,
2013-08-06 22:39:00,60.7,54.9,29.99,WNW,293,0.4,1.1,81,0.00,,,0.00,WUHU216HW,2013-08-07 05:39:00,
2013-08-06 22:44:00,60.8,54.7,30.00,West,270,0.4,1.1,80,0.00,,,0.00,WUHU216HW,2013-08-07 05:44:00,
2013-08-06 22:49:00,60.7,54.5,30.00,West,270,0.7,2.0,80,0.00,,,0.00,WUHU216HW,2013-08-07 05:49:00,
2013-08-06 22:54:00,60.5,54.4,30.00,WNW,293,0.0,2.0,80,0.00,,,0.00,WUHU216HW,2013-08-07 05:54:00,
2013-08-06 22:59:00,60.5,54.4,29.99,WNW,293,0.4,1.1,80,0.00,,,0.00,WUHU216HW,2013-08-07 05:59:00,
2013-08-06 23:04:00,60.1,54.0,29.99,WSW,248,0.2,1.8,80,0.00,,,0.00,WUHU216HW,2013-08-07 06:04:00,
2013-08-06 23:09:00,60.1,54.4,29.99,West,270,0.2,1.8,81,0.00,,,0.00,WUHU216HW,2013-08-07 06:09:00,
2013-08-06 23:14:00,60.1,54.0,29.99,SSW,203,0.4,0.4,80,0.00,,,0.00,WUHU216HW,2013-08-07 06:14:00,
2013-08-06 23:19:00,59.9,54.2,29.99,WSW,248,0.0,1.3,81,0.00,,,0.00,WUHU216HW,2013-08-07 06:19:00,
2013-08-06 23:24:00,59.8,54.0,29.99,SW,225,0.4,1.3,81,0.00,,,0.00,WUHU216HW,2013-08-07 06:24:00,
2013-08-06 23:29:00,59.8,54.0,29.99,WSW,248,0.0,1.8,81,0.00,,,0.00,WUHU216HW,2013-08-07 06:29:00,
2013-08-06 23:34:00,59.8,54.3,30.00,WSW,248,1.1,1.8,82,0.00,,,0.00,WUHU216HW,2013-08-07 06:34:00,
2013-08-06 23:39:00,59.8,54.3,29.99,WNW,293,0.0,1.6,82,0.00,,,0.00,WUHU216HW,2013-08-07 06:39:00,
2013-08-06 23:44:00,59.8,54.6,29.99,West,270,0.4,1.6,83,0.00,,,0.00,WUHU216HW,2013-08-07 06:44:00,
2013-08-06 23:50:00,59.8,54.3,29.99,WNW,293,0.2,1.1,82,0.00,,,0.00,WUHU216HW,2013-08-07 06:50:00,
2013-08-06 23:55:00,59.8,54.6,30.00,WNW,293,0.7,1.8,83,0.00,,,0.00,WUHU216HW,2013-08-07 06:55:00,